Terminal Aerodrome Forecast
Issued by NWS

Home | Current Version | Previous Version | Text Only | Print | Product List | Glossary On
Versions: 1 2 3 4 5 6 7 8 9 10 11 12 13 14 15 16
000
FTUS43 KDVN 191100
TAFBRL
TAF
KBRL 191140Z 1912/2012 21003KT P6SM SKC
     FM191700 21010KT P6SM BKN120
     FM200200 21008KT P6SM SKC=

USA.gov is the U.S. government's official web portal to all federal, state and local government web resources and services.